Rutland, Iowa
Current Conditions -  °F | °C
As of 6:15 PM on Wednesday 26 Nov 2014 (Local Time) from KFOD Reporting Station
Overcast Overcast  
Wind Chill: 10°   Ceiling: 1000
Heat Index: 21°   Visibility: 5mi
Dew Point: 16°   Wind: 10mph
Humidity: 80%   Direction: 340°NNW
Pressure: 30.27"   Gusts: 16mph
Location:  42.76°N, 94.3°W
Report Text: KFOD 270015Z AUTO 34009G14KT 5SM OVC010 M06/M09 A3027 RMK AO1
Loading
Personal Weather Stations






























Interactive Weather Map New forecast layout! Learn more

10-Day Weather Forecast

Advertisements
Track Severe Weather on mobile